Time;durP1;ratioP1;P1;durP2;ratioP2;P2;SDS_P1;SDS_P2;PMS_P1;PMS_P2;Temp;Humidity;BMP_temperature;BMP_pressure;BME280_temperature;BME280_humidity;BME280_pressure;Samples;Min_cycle;Max_cycle;Signal;HPM_P1;HPM_P2
2023/01/20 05:00:55;;;;;;;34.13;22.53;;;1.80;99.90;;;;;;5778783;23;20511;-72
2023/01/20 05:03:22;;;;;;;36.10;23.57;;;1.80;99.90;;;;;;4967578;28;20460;-71
2023/01/20 05:05:52;;;;;;;38.70;22.63;;;1.70;99.90;;;;;;4967793;28;20952;-72
2023/01/20 05:08:19;;;;;;;41.17;23.33;;;1.60;99.90;;;;;;4967900;28;20448;-71
2023/01/20 05:10:46;;;;;;;42.83;22.70;;;1.50;99.90;;;;;;4967403;28;21070;-71
2023/01/20 05:13:13;;;;;;;36.13;22.50;;;1.50;99.90;;;;;;4967742;28;20464;-71
2023/01/20 05:15:40;;;;;;;36.87;23.50;;;1.40;99.90;;;;;;4967669;28;20457;-71
2023/01/20 05:18:08;;;;;;;37.17;22.60;;;1.30;99.90;;;;;;4967228;28;20452;-71
2023/01/20 05:20:34;;;;;;;39.03;24.47;;;1.30;99.90;;;;;;4967353;28;20504;-71
2023/01/20 05:23:01;;;;;;;37.53;23.57;;;1.20;99.90;;;;;;4967266;28;20463;-72
2023/01/20 05:25:28;;;;;;;41.47;23.53;;;1.10;99.90;;;;;;4967889;28;20471;-71
2023/01/20 05:27:55;;;;;;;38.37;22.60;;;1.00;99.90;;;;;;4966798;28;20464;-71
2023/01/20 05:30:22;;;;;;;35.73;22.73;;;0.90;99.90;;;;;;4967428;28;20448;-71
2023/01/20 05:32:49;;;;;;;37.53;23.80;;;1.00;99.90;;;;;;4967041;28;20468;-71
2023/01/20 05:35:17;;;;;;;43.20;24.53;;;1.00;99.90;;;;;;4967308;28;20459;-72
2023/01/20 05:37:44;;;;;;;40.30;25.50;;;0.90;99.90;;;;;;4967030;28;20460;-71
2023/01/20 05:40:12;;;;;;;41.27;26.00;;;0.90;99.90;;;;;;4967114;28;20533;-71
2023/01/20 05:42:39;;;;;;;35.40;23.37;;;0.90;99.90;;;;;;4967208;28;20463;-71
2023/01/20 05:45:08;;;;;;;36.70;22.50;;;0.90;99.90;;;;;;4967072;28;20456;-68
2023/01/20 05:47:34;;;;;;;35.90;23.83;;;0.90;99.90;;;;;;4966159;28;20457;-67
2023/01/20 05:50:01;;;;;;;39.03;24.03;;;0.90;99.90;;;;;;4966757;28;20837;-67
2023/01/20 05:52:29;;;;;;;38.73;23.43;;;0.90;99.90;;;;;;4966780;28;20475;-67
2023/01/20 05:54:56;;;;;;;36.93;23.67;;;0.90;99.90;;;;;;4967173;28;20467;-67
2023/01/20 05:57:24;;;;;;;38.90;24.50;;;1.00;99.90;;;;;;4966342;28;20457;-68
2023/01/20 05:59:51;;;;;;;37.77;23.50;;;1.10;99.90;;;;;;4966807;28;20855;-68
2023/01/20 06:02:18;;;;;;;39.67;23.73;;;1.10;99.90;;;;;;4966575;28;20496;-68
2023/01/20 06:04:45;;;;;;;33.93;24.37;;;1.10;99.90;;;;;;4966368;28;20968;-67
2023/01/20 06:07:12;;;;;;;37.60;24.23;;;1.10;99.90;;;;;;4965850;28;20977;-67
2023/01/20 06:09:40;;;;;;;40.33;23.80;;;1.00;99.90;;;;;;4966399;28;20462;-67
2023/01/20 06:12:07;;;;;;;43.13;24.73;;;1.00;99.90;;;;;;4966099;28;20864;-67
2023/01/20 06:14:34;;;;;;;38.10;24.40;;;1.10;99.90;;;;;;4966643;28;20836;-67
2023/01/20 06:17:01;;;;;;;36.60;24.03;;;1.10;99.90;;;;;;4965973;28;20999;-68
2023/01/20 06:19:28;;;;;;;40.87;23.40;;;1.10;99.90;;;;;;4966015;28;20967;-68
2023/01/20 06:21:55;;;;;;;38.83;24.00;;;1.20;99.90;;;;;;4966459;28;20851;-67
2023/01/20 06:24:21;;;;;;;41.03;23.93;;;1.20;99.90;;;;;;4966713;28;20456;-68
2023/01/20 06:26:51;;;;;;;36.60;23.40;;;1.10;99.90;;;;;;4965738;28;20837;-68
2023/01/20 06:29:18;;;;;;;36.43;23.07;;;1.10;99.90;;;;;;4966556;28;20831;-69
2023/01/20 06:31:45;;;;;;;33.40;22.60;;;1.10;99.90;;;;;;4966559;28;20481;-67
2023/01/20 06:34:12;;;;;;;38.33;23.90;;;1.10;99.90;;;;;;4966691;28;20468;-67
2023/01/20 06:36:39;;;;;;;36.20;23.07;;;1.00;99.90;;;;;;4966124;28;20482;-67
2023/01/20 06:39:06;;;;;;;43.63;24.77;;;1.00;99.90;;;;;;4966363;28;20472;-68
2023/01/20 06:41:33;;;;;;;33.87;22.77;;;1.00;99.90;;;;;;4966253;28;20964;-67
2023/01/20 06:44:01;;;;;;;38.27;24.20;;;1.00;99.90;;;;;;4966618;28;20467;-67
2023/01/20 06:46:28;;;;;;;34.33;21.70;;;1.00;99.90;;;;;;4968587;28;20809;-67
2023/01/20 06:48:59;;;;;;;39.37;23.30;;;1.10;99.90;;;;;;4970110;28;20948;-67
2023/01/20 06:51:27;;;;;;;41.57;23.00;;;1.10;99.90;;;;;;4970146;28;20483;-68
2023/01/20 06:53:54;;;;;;;36.17;22.57;;;1.10;99.90;;;;;;4970166;28;20448;-67
2023/01/20 06:56:21;;;;;;;44.13;24.30;;;1.00;99.90;;;;;;4969486;28;20456;-67
2023/01/20 06:58:48;;;;;;;33.80;21.57;;;1.00;99.90;;;;;;4970026;28;20459;-68
2023/01/20 07:01:23;;;;;;;38.77;23.37;;;1.00;99.90;;;;;;4969737;28;20504;-68
2023/01/20 07:03:51;;;;;;;39.83;23.30;;;1.10;99.90;;;;;;4969737;28;20975;-67
2023/01/20 07:06:31;;;;;;;38.90;22.90;;;1.00;99.90;;;;;;4969076;28;20452;-68
2023/01/20 07:09:00;;;;;;;36.60;21.83;;;1.00;99.90;;;;;;4970185;28;20472;-68
2023/01/20 07:11:26;;;;;;;38.70;22.07;;;1.00;99.90;;;;;;4969525;28;20842;-68
2023/01/20 07:13:53;;;;;;;37.53;23.90;;;1.00;99.90;;;;;;4970115;28;20460;-68
2023/01/20 07:16:21;;;;;;;43.27;24.03;;;0.90;99.90;;;;;;4969024;28;20452;-68
2023/01/20 07:18:49;;;;;;;39.60;23.80;;;0.90;99.90;;;;;;4969272;28;20456;-68
2023/01/20 07:21:17;;;;;;;38.17;23.80;;;0.90;99.90;;;;;;4967858;28;20575;-68
2023/01/20 07:23:44;;;;;;;40.60;24.33;;;0.90;99.90;;;;;;4968143;28;20901;-68
2023/01/20 07:26:12;;;;;;;41.73;24.37;;;0.80;99.90;;;;;;4967082;28;20456;-68
2023/01/20 07:28:39;;;;;;;44.07;25.73;;;0.70;99.90;;;;;;4968264;28;20460;-67
2023/01/20 07:31:07;;;;;;;39.47;23.30;;;0.70;99.90;;;;;;4968837;28;20490;-68
2023/01/20 07:33:36;;;;;;;40.83;23.80;;;0.70;99.90;;;;;;4968753;28;20475;-68
2023/01/20 07:36:03;;;;;;;44.40;24.80;;;0.70;99.90;;;;;;4969026;28;20452;-68
2023/01/20 07:38:30;;;;;;;38.77;23.90;;;0.80;99.90;;;;;;4969360;28;20460;-68
2023/01/20 07:40:57;;;;;;;42.83;23.90;;;0.90;99.90;;;;;;4968741;28;21148;-68
2023/01/20 07:43:24;;;;;;;46.53;24.37;;;0.90;99.90;;;;;;4969616;28;20459;-68
2023/01/20 07:45:54;;;;;;;41.87;25.30;;;1.00;99.90;;;;;;4969176;28;20448;-68
2023/01/20 07:48:21;;;;;;;42.57;24.00;;;1.00;99.90;;;;;;4969313;28;20456;-67
2023/01/20 07:50:56;;;;;;;44.47;26.97;;;1.00;99.90;;;;;;4969238;28;20472;-68
2023/01/20 07:53:23;;;;;;;47.57;26.13;;;0.90;99.90;;;;;;4969373;28;20472;-69
2023/01/20 07:55:50;;;;;;;45.03;24.43;;;0.90;99.90;;;;;;4969161;28;20455;-68
2023/01/20 07:58:17;;;;;;;41.77;23.80;;;0.90;99.90;;;;;;4967499;28;20460;-69
2023/01/20 08:00:47;;;;;;;40.43;23.53;;;0.90;99.90;;;;;;4968602;28;20523;-68
2023/01/20 08:03:14;;;;;;;43.90;23.47;;;0.90;99.90;;;;;;4969204;28;20477;-66
2023/01/20 08:05:41;;;;;;;42.80;24.23;;;0.90;99.90;;;;;;4969087;28;20453;-66
2023/01/20 08:08:09;;;;;;;39.00;22.50;;;0.90;99.90;;;;;;4968453;28;20920;-67
2023/01/20 08:10:37;;;;;;;37.47;23.67;;;1.00;99.90;;;;;;4968676;28;20558;-66
2023/01/20 08:13:03;;;;;;;40.87;24.00;;;1.00;99.90;;;;;;4968769;28;20457;-66
2023/01/20 08:15:30;;;;;;;41.40;24.60;;;1.00;99.90;;;;;;4968713;28;20463;-66
2023/01/20 08:17:58;;;;;;;39.97;23.50;;;1.00;99.90;;;;;;4968209;28;20467;-66
2023/01/20 08:20:25;;;;;;;38.43;23.47;;;1.00;99.90;;;;;;4968333;28;21047;-66
2023/01/20 08:22:52;;;;;;;38.63;23.30;;;0.90;99.90;;;;;;4968403;28;21193;-66
2023/01/20 08:25:20;;;;;;;38.27;24.33;;;0.90;99.90;;;;;;4968619;28;20460;-66
2023/01/20 08:27:48;;;;;;;41.07;23.93;;;0.90;99.90;;;;;;4968054;28;20460;-66
2023/01/20 08:30:15;;;;;;;40.60;23.60;;;0.90;99.90;;;;;;4968463;28;20503;-66
2023/01/20 08:32:42;;;;;;;44.13;25.00;;;0.90;99.90;;;;;;4968406;28;20463;-66
2023/01/20 08:35:09;;;;;;;42.27;23.23;;;0.90;99.90;;;;;;4968108;28;20460;-66
2023/01/20 08:37:36;;;;;;;44.63;24.50;;;1.10;99.90;;;;;;4967877;28;20448;-66
2023/01/20 08:40:05;;;;;;;41.57;24.53;;;1.10;99.90;;;;;;4968248;28;20457;-66
2023/01/20 08:42:33;;;;;;;38.00;23.63;;;1.10;99.90;;;;;;4968456;28;20476;-66
2023/01/20 08:45:00;;;;;;;42.93;25.30;;;1.00;99.90;;;;;;4968023;28;20449;-66
2023/01/20 08:47:27;;;;;;;43.90;24.50;;;1.00;99.90;;;;;;4967305;28;20464;-66
2023/01/20 08:49:54;;;;;;;37.27;23.53;;;1.10;99.90;;;;;;4967966;28;20919;-68
2023/01/20 08:52:21;;;;;;;40.00;24.90;;;1.10;99.90;;;;;;4967738;28;20468;-68
2023/01/20 08:54:51;;;;;;;41.83;24.80;;;1.10;99.90;;;;;;4967947;28;20456;-68
2023/01/20 08:57:18;;;;;;;33.73;21.53;;;1.10;99.90;;;;;;4967601;28;20456;-66
2023/01/20 08:59:46;;;;;;;35.90;23.23;;;1.10;99.90;;;;;;4967786;28;20456;-66
2023/01/20 09:02:13;;;;;;;39.47;22.57;;;1.10;99.90;;;;;;4967561;28;20500;-66
2023/01/20 09:04:40;;;;;;;36.57;22.33;;;1.20;99.90;;;;;;4968043;28;20451;-66
2023/01/20 09:07:10;;;;;;;37.50;23.93;;;1.10;99.90;;;;;;4967149;28;20576;-66
2023/01/20 09:09:37;;;;;;;42.40;24.67;;;1.10;99.90;;;;;;4967185;28;21362;-66
2023/01/20 09:12:04;;;;;;;39.07;21.77;;;1.10;99.90;;;;;;4967490;28;21015;-66
2023/01/20 09:14:31;;;;;;;34.43;21.07;;;1.20;99.90;;;;;;4967873;28;20550;-68
2023/01/20 09:17:00;;;;;;;37.13;22.03;;;1.20;99.90;;;;;;4967133;28;20448;-66
2023/01/20 09:19:27;;;;;;;43.10;25.50;;;1.20;99.90;;;;;;4967555;28;20472;-66
2023/01/20 09:21:54;;;;;;;35.07;21.90;;;1.10;99.90;;;;;;4967160;28;20504;-68
2023/01/20 09:24:21;;;;;;;37.97;22.87;;;1.20;99.90;;;;;;4967559;28;20451;-68
2023/01/20 09:26:48;;;;;;;38.13;23.80;;;1.20;99.90;;;;;;4966542;28;20452;-68
2023/01/20 09:29:20;;;;;;;35.87;23.53;;;1.30;99.90;;;;;;4967438;28;20452;-68
2023/01/20 09:31:51;;;;;;;36.07;23.03;;;1.30;99.90;;;;;;4966888;28;21193;-69
2023/01/20 09:34:23;;;;;;;39.43;24.33;;;1.20;99.90;;;;;;4967676;28;20449;-68
2023/01/20 09:36:51;;;;;;;43.30;24.30;;;1.20;99.90;;;;;;4966702;28;20461;-66
2023/01/20 09:45:04;;;;;;;35.63;22.63;;;1.20;99.90;;;;;;4985563;28;20455;-68
2023/01/20 09:47:36;;;;;;;39.00;23.10;;;1.20;99.90;;;;;;4985031;28;20474;-67
2023/01/20 09:53:15;;;;;;;39.17;21.50;;;1.30;99.90;;;;;;4985046;28;20986;-67
2023/01/20 09:55:48;;;;;;;38.63;21.90;;;1.30;99.90;;;;;;4985699;28;20463;-68
2023/01/20 09:58:32;;;;;;;39.87;24.20;;;1.30;99.90;;;;;;4985128;28;20445;-68
2023/01/20 10:01:08;;;;;;;32.83;21.07;;;1.40;99.90;;;;;;4983808;28;20964;-68
2023/01/20 10:03:41;;;;;;;34.47;22.50;;;1.40;99.90;;;;;;4985672;28;20458;-69
2023/01/20 10:06:14;;;;;;;31.23;21.37;;;1.50;99.90;;;;;;4984679;28;20443;-69
2023/01/20 10:08:50;;;;;;;37.17;23.30;;;1.60;99.90;;;;;;4984963;28;20506;-69
2023/01/20 10:11:20;;;;;;;32.93;21.23;;;1.70;99.90;;;;;;4985518;28;21406;-68
2023/01/20 10:13:51;;;;;;;33.60;22.20;;;1.70;99.90;;;;;;4985885;28;20486;-68
2023/01/20 10:16:26;;;;;;;32.47;20.63;;;1.80;99.90;;;;;;4984949;28;20448;-69
2023/01/20 10:18:57;;;;;;;34.33;21.65;;;1.80;99.90;;;;;;4985015;28;20445;-68
2023/01/20 10:21:32;;;;;;;38.70;22.67;;;1.90;99.90;;;;;;4985209;28;20243;-69
2023/01/20 10:24:07;;;;;;;28.03;18.80;;;2.10;99.90;;;;;;4985829;28;20450;-69
2023/01/20 10:26:38;;;;;;;29.30;19.13;;;2.30;99.90;;;;;;4985656;28;20443;-70
2023/01/20 10:29:09;;;;;;;28.00;17.97;;;2.20;99.90;;;;;;4985990;28;20493;-68
2023/01/20 10:31:43;;;;;;;33.77;18.40;;;2.30;99.90;;;;;;4985694;28;20463;-68
2023/01/20 10:34:15;;;;;;;26.13;17.07;;;2.30;99.90;;;;;;4986381;28;20446;-68
2023/01/20 10:36:49;;;;;;;26.80;18.30;;;2.30;99.90;;;;;;4985515;28;20440;-68
2023/01/20 10:39:26;;;;;;;27.83;17.77;;;2.40;99.90;;;;;;4986284;28;20439;-68
2023/01/20 10:41:57;;;;;;;25.90;15.40;;;2.40;99.90;;;;;;4985461;28;20522;-68
2023/01/20 10:44:24;;;;;;;24.10;17.53;;;2.40;99.90;;;;;;4986115;28;20451;-68
2023/01/20 10:47:06;;;;;;;25.57;16.50;;;2.50;99.90;;;;;;4985203;28;20455;-68
2023/01/20 10:50:01;;;;;;;26.53;17.10;;;2.50;99.90;;;;;;4986238;28;20439;-67
2023/01/20 10:52:56;;;;;;;24.73;16.57;;;2.50;99.90;;;;;;4985310;28;20471;-67
2023/01/20 10:55:34;;;;;;;22.00;16.23;;;2.60;99.90;;;;;;4980830;28;20470;-67
2023/01/20 10:58:12;;;;;;;23.50;15.30;;;2.70;99.90;;;;;;4985185;28;20447;-68
2023/01/20 11:00:40;;;;;;;30.03;17.13;;;2.70;99.90;;;;;;4985568;28;20483;-67
2023/01/20 11:03:12;;;;;;;24.30;15.80;;;2.80;99.90;;;;;;4985984;28;20464;-68
2023/01/20 11:05:41;;;;;;;23.40;15.07;;;2.90;99.90;;;;;;4986084;28;20431;-68
2023/01/20 11:08:15;;;;;;;22.20;15.07;;;3.00;99.90;;;;;;4985251;28;20455;-68
2023/01/20 11:10:41;;;;;;;23.37;15.90;;;3.20;99.90;;;;;;4985251;28;20485;-69
2023/01/20 11:13:10;;;;;;;22.40;14.03;;;3.30;99.90;;;;;;4985417;28;20458;-68
2023/01/20 11:15:40;;;;;;;19.20;13.67;;;3.30;99.90;;;;;;4986038;28;20452;-68
2023/01/20 11:18:22;;;;;;;23.13;13.90;;;3.40;99.90;;;;;;4984879;28;20458;-68
2023/01/20 11:20:52;;;;;;;21.10;13.70;;;3.50;99.90;;;;;;4985428;28;20486;-68
2023/01/20 11:23:29;;;;;;;21.03;14.23;;;3.50;99.90;;;;;;4985330;28;20448;-68
2023/01/20 11:25:57;;;;;;;21.37;13.87;;;3.60;99.90;;;;;;4985227;28;20539;-68
2023/01/20 11:28:24;;;;;;;25.27;15.83;;;3.70;99.90;;;;;;4985618;28;20798;-68
2023/01/20 11:30:53;;;;;;;23.57;14.50;;;3.90;99.90;;;;;;4985437;28;20467;-68
2023/01/20 11:33:22;;;;;;;20.97;14.90;;;4.20;99.90;;;;;;4989213;28;20458;-68
2023/01/20 11:36:00;;;;;;;22.43;15.43;;;4.30;99.90;;;;;;4988994;28;20463;-68
2023/01/20 11:38:30;;;;;;;21.40;15.23;;;4.30;99.90;;;;;;4988821;28;20447;-68
2023/01/20 11:40:58;;;;;;;20.27;14.70;;;4.30;99.90;;;;;;4988681;28;20478;-68
2023/01/20 11:43:30;;;;;;;21.97;15.57;;;4.40;99.90;;;;;;4988695;28;20456;-68
2023/01/20 11:46:11;;;;;;;23.10;14.17;;;4.50;99.90;;;;;;4988425;28;20812;-68
2023/01/20 11:48:38;;;;;;;26.43;15.20;;;4.60;99.90;;;;;;4988842;28;20443;-69
2023/01/20 11:51:05;;;;;;;20.57;14.10;;;4.80;99.90;;;;;;4988625;28;20478;-69
2023/01/20 11:53:35;;;;;;;22.10;13.73;;;4.80;99.90;;;;;;4988721;28;20454;-73
2023/01/20 11:56:05;;;;;;;18.40;12.47;;;4.70;99.90;;;;;;4988256;28;20460;-68
2023/01/20 11:58:34;;;;;;;23.27;13.87;;;4.70;99.90;;;;;;4988511;28;20463;-68
2023/01/20 12:01:03;;;;;;;20.17;13.27;;;4.80;99.90;;;;;;4987918;28;20483;-68
2023/01/20 12:04:13;;;;;;;18.40;11.97;;;4.80;99.90;;;;;;4988450;28;20451;-69
2023/01/20 12:06:50;;;;;;;18.93;11.30;;;4.60;99.90;;;;;;4987780;28;20455;-69
2023/01/20 12:09:23;;;;;;;16.30;10.80;;;4.30;99.90;;;;;;4986798;28;20434;-69
2023/01/20 12:11:56;;;;;;;14.00;9.43;;;4.10;99.90;;;;;;4987183;28;20479;-69
2023/01/20 12:14:27;;;;;;;15.90;10.50;;;4.00;99.90;;;;;;4987098;28;20452;-68
2023/01/20 12:17:31;;;;;;;17.47;12.20;;;3.90;99.90;;;;;;4986761;28;20475;-69
2023/01/20 12:20:06;;;;;;;14.80;10.17;;;3.80;99.90;;;;;;4956027;28;20470;-69
2023/01/20 12:22:40;;;;;;;14.20;10.60;;;3.80;99.90;;;;;;4986852;28;20502;-68
2023/01/20 12:25:18;;;;;;;16.30;10.50;;;3.80;99.90;;;;;;4987390;28;20838;-68
2023/01/20 12:27:48;;;;;;;13.87;10.17;;;3.90;99.90;;;;;;4986828;28;20436;-69
2023/01/20 12:30:47;;;;;;;16.40;10.67;;;3.90;99.90;;;;;;4986874;28;20451;-69
2023/01/20 12:33:25;;;;;;;19.47;10.43;;;3.90;99.90;;;;;;4981560;28;20463;-71
2023/01/20 12:36:19;;;;;;;13.73;9.60;;;3.80;99.90;;;;;;4986300;28;20978;-69
2023/01/20 12:39:02;;;;;;;22.03;10.60;;;3.80;99.90;;;;;;4987051;28;20447;-69
2023/01/20 12:41:53;;;;;;;17.47;10.17;;;3.70;99.90;;;;;;4986847;28;20484;-69
2023/01/20 12:44:27;;;;;;;20.50;10.77;;;3.70;99.90;;;;;;4986216;28;20459;-68
2023/01/20 12:47:02;;;;;;;18.87;11.47;;;3.60;99.90;;;;;;4985657;28;20458;-69
2023/01/20 12:49:43;;;;;;;15.27;10.33;;;3.60;99.90;;;;;;4986839;28;20455;-66
2023/01/20 12:52:29;;;;;;;16.50;11.20;;;3.70;99.90;;;;;;4986322;28;20471;-69
2023/01/20 12:55:12;;;;;;;18.73;11.40;;;3.80;99.90;;;;;;4986652;28;20455;-67
2023/01/20 12:57:55;;;;;;;18.30;10.33;;;3.70;99.90;;;;;;4986096;28;20451;-68
2023/01/20 13:00:36;;;;;;;13.40;10.17;;;3.70;99.90;;;;;;4986416;28;20439;-67
2023/01/20 13:03:43;;;;;;;15.10;10.33;;;3.70;99.90;;;;;;4985829;28;20526;-68
2023/01/20 13:06:37;;;;;;;16.10;9.63;;;3.80;99.90;;;;;;4985773;28;20444;-67
2023/01/20 13:09:14;;;;;;;16.90;10.53;;;3.90;99.90;;;;;;4980066;28;20460;-66
2023/01/20 13:11:51;;;;;;;11.97;8.10;;;3.90;99.90;;;;;;4985893;28;21122;-68
2023/01/20 13:14:24;;;;;;;10.97;8.53;;;3.90;99.90;;;;;;4986621;28;20447;-68
2023/01/20 13:16:59;;;;;;;10.93;7.80;;;3.90;99.90;;;;;;4986263;28;20443;-68
2023/01/20 13:19:30;;;;;;;15.50;9.23;;;3.90;99.90;;;;;;4986545;28;20914;-68
2023/01/20 13:22:08;;;;;;;14.93;12.27;;;3.90;99.90;;;;;;4986588;28;20495;-68
2023/01/20 13:24:36;;;;;;;12.03;8.60;;;3.90;99.90;;;;;;4986784;28;20460;-67
2023/01/20 13:27:03;;;;;;;15.80;8.37;;;3.80;99.90;;;;;;4985775;28;20978;-67
2023/01/20 13:29:52;;;;;;;13.50;9.27;;;3.90;99.90;;;;;;4986907;28;20451;-68
2023/01/20 13:32:30;;;;;;;14.70;9.47;;;3.80;99.90;;;;;;4986867;28;20471;-69
2023/01/20 13:34:58;;;;;;;15.70;9.80;;;3.80;99.90;;;;;;4986985;28;20443;-68
2023/01/20 13:37:37;;;;;;;15.70;9.30;;;3.80;99.90;;;;;;4985481;28;20467;-68
2023/01/20 13:40:20;;;;;;;20.80;9.70;;;3.80;99.90;;;;;;4986462;28;20523;-67
2023/01/20 13:42:50;;;;;;;22.67;10.03;;;3.80;99.90;;;;;;4985562;28;20495;-69
2023/01/20 13:45:26;;;;;;;12.67;8.80;;;3.90;99.90;;;;;;4986415;28;20463;-68
2023/01/20 13:47:59;;;;;;;13.23;9.47;;;4.10;99.90;;;;;;4986099;28;20528;-69
2023/01/20 13:50:29;;;;;;;14.53;8.03;;;4.10;99.90;;;;;;4986257;28;21517;-69
2023/01/20 13:53:26;;;;;;;19.20;9.00;;;4.20;99.90;;;;;;4986664;28;20494;-69
2023/01/20 13:56:01;;;;;;;11.07;7.90;;;4.20;99.90;;;;;;4985003;28;20464;-68
2023/01/20 13:58:30;;;;;;;10.80;8.07;;;4.20;99.90;;;;;;4986809;28;20443;-67
2023/01/20 14:01:00;;;;;;;15.30;8.40;;;4.30;99.90;;;;;;4986283;28;21035;-68
2023/01/20 14:03:29;;;;;;;12.50;8.90;;;4.40;99.90;;;;;;4986217;28;20503;-68
2023/01/20 14:05:58;;;;;;;10.83;8.03;;;4.40;99.90;;;;;;4985801;28;20451;-69
2023/01/20 14:08:26;;;;;;;12.13;8.00;;;4.40;99.90;;;;;;4986282;28;20812;-68
2023/01/20 14:11:06;;;;;;;8.70;7.10;;;4.40;99.90;;;;;;4985899;28;20482;-68
2023/01/20 14:13:33;;;;;;;9.23;7.70;;;4.40;99.90;;;;;;4986399;28;20436;-68
2023/01/20 14:16:01;;;;;;;11.57;7.80;;;4.40;99.90;;;;;;4985195;28;20467;-68
2023/01/20 14:18:28;;;;;;;12.40;7.77;;;4.40;99.90;;;;;;4985808;28;20462;-68
2023/01/20 14:21:17;;;;;;;11.50;7.87;;;4.40;99.90;;;;;;4986262;28;20478;-68
2023/01/20 14:23:45;;;;;;;18.60;9.17;;;4.40;99.90;;;;;;4985939;28;21016;-68
2023/01/20 14:26:14;;;;;;;9.60;7.83;;;4.50;99.90;;;;;;4985333;28;20951;-68
2023/01/20 14:28:47;;;;;;;23.43;8.67;;;4.40;99.90;;;;;;4986268;28;20448;-68
2023/01/20 14:31:33;;;;;;;10.03;7.40;;;4.40;99.90;;;;;;4986015;28;20492;-68
2023/01/20 14:34:03;;;;;;;12.13;7.60;;;4.50;99.90;;;;;;4986137;28;20431;-68
2023/01/20 14:36:32;;;;;;;13.93;7.90;;;4.60;99.90;;;;;;4985371;28;20442;-68
2023/01/20 14:39:01;;;;;;;12.17;7.53;;;4.60;99.90;;;;;;4986009;28;20963;-67
2023/01/20 14:41:34;;;;;;;11.20;8.23;;;4.60;99.90;;;;;;4985899;28;20479;-68
2023/01/20 14:44:02;;;;;;;10.40;7.70;;;4.70;99.90;;;;;;4985969;28;20498;-68
2023/01/20 14:46:32;;;;;;;11.10;7.40;;;4.70;99.90;;;;;;4985332;28;20452;-68
2023/01/20 14:49:00;;;;;;;16.93;8.27;;;4.70;99.90;;;;;;4985988;28;20991;-68
2023/01/20 14:51:27;;;;;;;12.40;8.87;;;4.60;99.90;;;;;;4985903;28;20475;-68
2023/01/20 14:54:34;;;;;;;13.00;7.77;;;4.50;99.90;;;;;;4985810;28;20450;-68
2023/01/20 14:57:12;;;;;;;15.73;8.03;;;4.50;99.90;;;;;;4984954;28;20838;-68
2023/01/20 14:59:39;;;;;;;16.03;8.83;;;4.50;99.90;;;;;;4986174;28;20432;-69
2023/01/20 15:02:18;;;;;;;12.17;7.33;;;4.40;99.90;;;;;;4985724;28;20483;-68
2023/01/20 15:04:45;;;;;;;7.17;5.60;;;4.50;99.90;;;;;;4985970;28;20920;-68
2023/01/20 15:07:18;;;;;;;8.07;4.50;;;4.50;99.90;;;;;;4987709;28;20464;-68
2023/01/20 15:09:51;;;;;;;9.20;5.40;;;4.50;99.90;;;;;;4989325;28;20505;-68
2023/01/20 15:12:41;;;;;;;7.60;3.97;;;4.50;99.90;;;;;;4989317;28;20470;-69
2023/01/20 15:15:28;;;;;;;5.97;4.23;;;4.50;99.90;;;;;;4987823;28;20491;-69
2023/01/20 15:18:22;;;;;;;6.70;4.10;;;4.50;99.90;;;;;;4985825;28;20505;-69
2023/01/20 15:20:51;;;;;;;6.83;4.37;;;4.50;99.90;;;;;;4988714;28;20840;-67
2023/01/20 15:23:27;;;;;;;9.60;4.80;;;4.40;99.90;;;;;;4988835;28;20495;-68
2023/01/20 15:25:54;;;;;;;9.80;5.50;;;4.50;99.90;;;;;;4988256;28;20457;-68
2023/01/20 15:28:24;;;;;;;7.63;5.93;;;4.60;99.90;;;;;;4988995;28;20459;-68
2023/01/20 15:30:52;;;;;;;7.27;5.40;;;4.60;99.90;;;;;;4989000;28;20889;-68
2023/01/20 15:33:20;;;;;;;6.53;4.83;;;4.60;99.90;;;;;;4988889;28;20512;-68
2023/01/20 15:35:53;;;;;;;6.63;5.20;;;4.70;99.90;;;;;;4988333;28;20459;-68
2023/01/20 15:38:20;;;;;;;14.70;7.70;;;4.70;99.90;;;;;;4987608;28;20462;-68
2023/01/20 15:40:47;;;;;;;7.13;5.90;;;4.70;99.90;;;;;;4968324;28;20480;-67
2023/01/20 15:43:16;;;;;;;10.80;5.70;;;4.60;99.90;;;;;;4967613;28;20496;-70
2023/01/20 15:45:43;;;;;;;8.10;5.60;;;4.50;99.90;;;;;;4968448;28;20461;-70
2023/01/20 15:48:21;;;;;;;11.20;5.67;;;4.50;99.90;;;;;;4967520;28;20452;-70
2023/01/20 15:50:48;;;;;;;9.30;5.80;;;4.50;99.90;;;;;;4968155;28;21341;-70
2023/01/20 15:53:16;;;;;;;7.90;5.60;;;4.40;99.90;;;;;;4968338;28;20825;-69
2023/01/20 15:55:48;;;;;;;8.80;6.30;;;4.40;99.90;;;;;;4968076;28;20460;-70
2023/01/20 15:58:32;;;;;;;9.77;6.33;;;4.40;99.90;;;;;;4967278;28;20453;-70
2023/01/20 16:00:59;;;;;;;11.30;6.90;;;4.40;99.90;;;;;;4967648;28;20488;-67
2023/01/20 16:03:28;;;;;;;13.87;7.87;;;4.30;99.90;;;;;;4968384;28;20579;-70
2023/01/20 16:05:56;;;;;;;13.47;8.70;;;4.30;99.90;;;;;;4967730;28;20529;-70
2023/01/20 16:08:29;;;;;;;10.53;6.80;;;4.20;99.90;;;;;;4968776;28;20457;-68
2023/01/20 16:10:56;;;;;;;11.80;6.80;;;4.20;99.90;;;;;;4968584;28;20479;-75
2023/01/20 16:13:23;;;;;;;11.17;7.30;;;4.10;99.90;;;;;;4969045;28;20452;-72
2023/01/20 16:15:50;;;;;;;17.90;8.60;;;4.10;99.90;;;;;;4968569;28;20468;-72
2023/01/20 16:18:17;;;;;;;11.77;7.57;;;4.10;99.90;;;;;;4967204;28;20464;-72
2023/01/20 16:20:47;;;;;;;12.80;7.90;;;4.10;99.90;;;;;;4968805;28;20854;-72
2023/01/20 16:23:14;;;;;;;10.70;7.17;;;4.10;99.90;;;;;;4968903;28;20507;-72
2023/01/20 16:25:42;;;;;;;13.20;8.37;;;4.10;99.90;;;;;;4968486;28;20460;-72
2023/01/20 16:28:13;;;;;;;13.30;8.60;;;4.00;99.90;;;;;;4967634;28;20585;-72
2023/01/20 16:30:40;;;;;;;19.17;9.13;;;4.00;99.90;;;;;;4967764;28;20481;-72
2023/01/20 16:33:16;;;;;;;15.40;9.27;;;3.90;99.90;;;;;;4968456;28;20455;-73
2023/01/20 16:35:43;;;;;;;14.20;8.90;;;3.80;99.90;;;;;;4974501;28;20506;-72
2023/01/20 16:38:13;;;;;;;15.53;10.30;;;3.80;99.90;;;;;;4986881;28;21030;-72
2023/01/20 16:40:49;;;;;;;15.07;10.27;;;3.70;99.90;;;;;;4983848;28;20538;-73
2023/01/20 16:43:17;;;;;;;19.03;11.47;;;3.60;99.90;;;;;;4985227;28;21043;-73
2023/01/20 16:45:48;;;;;;;14.93;9.93;;;3.60;99.90;;;;;;4987595;28;20446;-72
2023/01/20 16:48:17;;;;;;;14.40;9.27;;;3.50;99.90;;;;;;4987050;28;20452;-72
2023/01/20 16:50:43;;;;;;;17.80;9.77;;;3.50;99.90;;;;;;4987010;28;20825;-73
2023/01/20 16:53:12;;;;;;;13.57;10.03;;;3.40;99.90;;;;;;4986747;28;20452;-72
2023/01/20 16:55:39;;;;;;;16.20;10.90;;;3.40;99.90;;;;;;4987660;28;20462;-80
2023/01/20 16:58:07;;;;;;;16.07;10.30;;;3.40;99.90;;;;;;4986814;28;20501;-70
2023/01/20 17:00:34;;;;;;;21.40;12.30;;;3.30;99.90;;;;;;4986745;28;20475;-70
2023/01/20 17:03:02;;;;;;;27.27;14.27;;;3.30;99.90;;;;;;4987264;28;20849;-70
2023/01/20 17:05:28;;;;;;;15.50;11.07;;;3.30;99.90;;;;;;4987290;28;21050;-70
2023/01/20 17:07:57;;;;;;;19.30;12.20;;;3.20;99.90;;;;;;4971586;28;20468;-71
2023/01/20 17:10:25;;;;;;;28.27;13.33;;;3.20;99.90;;;;;;4967352;28;20463;-70
2023/01/20 17:12:53;;;;;;;22.37;13.80;;;3.20;99.90;;;;;;4967455;28;20537;-70
2023/01/20 17:15:22;;;;;;;19.33;14.30;;;3.20;99.90;;;;;;4967776;28;20523;-70
2023/01/20 17:17:49;;;;;;;19.37;13.50;;;3.10;99.90;;;;;;4966845;28;20459;-69
2023/01/20 17:20:17;;;;;;;23.17;13.37;;;3.00;99.90;;;;;;4965983;28;20465;-69
2023/01/20 17:22:44;;;;;;;21.30;13.13;;;3.00;99.90;;;;;;4968206;28;20452;-69
2023/01/20 17:25:21;;;;;;;;;;;;;;;;;;;;;
2023/01/20 17:27:48;;;;;;;21.70;14.53;;;3.00;99.90;;;;;;4967309;28;20456;-70
2023/01/20 17:30:19;;;;;;;22.03;14.20;;;3.00;99.90;;;;;;4968052;28;20455;-70
2023/01/20 17:32:48;;;;;;;26.67;14.90;;;2.90;99.90;;;;;;4969427;28;20433;-70
2023/01/20 17:35:15;;;;;;;23.77;14.80;;;2.90;99.90;;;;;;4968865;28;20445;-70
2023/01/20 17:37:42;;;;;;;25.70;15.20;;;2.90;99.90;;;;;;4967862;28;20456;-70
2023/01/20 17:40:10;;;;;;;23.27;14.87;;;2.90;99.90;;;;;;4968069;28;20551;-70
2023/01/20 17:42:37;;;;;;;22.13;14.33;;;2.90;99.90;;;;;;4968626;28;20498;-70
2023/01/20 17:45:05;;;;;;;24.60;13.30;;;2.90;99.90;;;;;;4968807;28;20510;-70
2023/01/20 17:47:31;;;;;;;18.93;12.60;;;2.80;99.90;;;;;;4966919;28;20461;-70
2023/01/20 17:50:00;;;;;;;18.30;12.30;;;2.70;99.90;;;;;;4968378;28;20468;-69
2023/01/20 17:52:27;;;;;;;24.10;14.70;;;2.70;99.90;;;;;;4967663;28;20480;-73
2023/01/20 17:54:54;;;;;;;21.93;14.40;;;2.70;99.90;;;;;;4966389;28;20583;-69
2023/01/20 17:57:21;;;;;;;25.27;15.27;;;2.60;99.90;;;;;;4965254;28;20463;-69
2023/01/20 17:59:48;;;;;;;26.80;16.33;;;2.60;99.90;;;;;;4966623;28;20455;-69
2023/01/20 18:02:17;;;;;;;35.67;21.93;;;2.60;99.90;;;;;;4966729;28;20488;-69
2023/01/20 18:04:44;;;;;;;40.40;23.40;;;2.60;99.90;;;;;;4967024;28;20499;-68
2023/01/20 18:07:12;;;;;;;40.90;20.03;;;2.60;99.90;;;;;;4964970;28;21039;-68
2023/01/20 18:09:39;;;;;;;27.00;17.27;;;2.50;99.90;;;;;;4966396;28;20467;-68